sensor_id;sensor_type;location;lat;lon;timestamp;P1;durP1;ratioP1;P2;durP2;ratioP2
54037;SDS011;39954;48.844;9.726;2022-08-06T02:47:10;9.45;;;2.15;;
54037;SDS011;39954;48.844;9.726;2022-08-06T02:48:28;16.95;;;2.65;;
54037;SDS011;39954;48.844;9.726;2022-08-06T02:49:45;14.63;;;2.72;;
54037;SDS011;39954;48.844;9.726;2022-08-06T02:50:58;8.65;;;2.28;;
54037;SDS011;39954;48.844;9.726;2022-08-06T02:52:30;18.98;;;2.88;;
54037;SDS011;39954;48.844;9.726;2022-08-06T02:53:58;18.23;;;2.65;;
54037;SDS011;39954;48.844;9.726;2022-08-06T02:55:11;3.92;;;1.95;;
54037;SDS011;39954;48.844;9.726;2022-08-06T02:56:16;18.75;;;2.72;;
54037;SDS011;39954;48.844;9.726;2022-08-06T02:57:28;10.98;;;2.38;;
54037;SDS011;39954;48.844;9.726;2022-08-06T02:58:52;25.00;;;2.80;;
54037;SDS011;39954;48.844;9.726;2022-08-06T03:00:03;23.77;;;2.97;;
54037;SDS011;39954;48.844;9.726;2022-08-06T03:01:08;18.88;;;2.67;;
54037;SDS011;39954;48.844;9.726;2022-08-06T03:02:25;22.77;;;2.92;;
54037;SDS011;39954;48.844;9.726;2022-08-06T03:03:31;5.15;;;1.75;;
54037;SDS011;39954;48.844;9.726;2022-08-06T03:04:58;12.20;;;2.30;;
54037;SDS011;39954;48.844;9.726;2022-08-06T03:06:09;10.82;;;2.35;;
54037;SDS011;39954;48.844;9.726;2022-08-06T03:07:16;18.35;;;3.00;;
54037;SDS011;39954;48.844;9.726;2022-08-06T03:08:27;14.43;;;2.25;;
54037;SDS011;39954;48.844;9.726;2022-08-06T03:09:36;27.25;;;3.30;;
54037;SDS011;39954;48.844;9.726;2022-08-06T03:10:52;14.27;;;2.40;;
54037;SDS011;39954;48.844;9.726;2022-08-06T03:11:55;34.13;;;4.05;;
54037;SDS011;39954;48.844;9.726;2022-08-06T03:13:02;9.85;;;2.30;;
54037;SDS011;39954;48.844;9.726;2022-08-06T03:14:11;11.05;;;2.53;;
54037;SDS011;39954;48.844;9.726;2022-08-06T03:15:37;26.30;;;2.85;;
54037;SDS011;39954;48.844;9.726;2022-08-06T03:17:01;11.88;;;2.53;;
54037;SDS011;39954;48.844;9.726;2022-08-06T03:18:10;10.93;;;2.20;;
54037;SDS011;39954;48.844;9.726;2022-08-06T03:19:17;17.40;;;2.58;;
54037;SDS011;39954;48.844;9.726;2022-08-06T03:20:43;8.77;;;2.05;;
54037;SDS011;39954;48.844;9.726;2022-08-06T03:21:50;8.73;;;2.05;;
54037;SDS011;39954;48.844;9.726;2022-08-06T03:22:58;9.80;;;2.08;;
54037;SDS011;39954;48.844;9.726;2022-08-06T03:24:05;13.25;;;2.33;;
54037;SDS011;39954;48.844;9.726;2022-08-06T03:25:09;12.80;;;2.13;;
54037;SDS011;39954;48.844;9.726;2022-08-06T03:26:16;15.30;;;2.72;;
54037;SDS011;39954;48.844;9.726;2022-08-06T03:27:19;12.27;;;2.45;;
54037;SDS011;39954;48.844;9.726;2022-08-06T03:28:25;10.93;;;2.08;;
54037;SDS011;39954;48.844;9.726;2022-08-06T03:29:28;16.88;;;2.35;;
54037;SDS011;39954;48.844;9.726;2022-08-06T03:30:34;14.80;;;2.63;;
54037;SDS011;39954;48.844;9.726;2022-08-06T03:31:38;23.45;;;2.92;;
54037;SDS011;39954;48.844;9.726;2022-08-06T03:33:00;12.27;;;2.13;;
54037;SDS011;39954;48.844;9.726;2022-08-06T03:34:26;11.15;;;2.30;;
54037;SDS011;39954;48.844;9.726;2022-08-06T03:35:32;5.90;;;2.20;;
54037;SDS011;39954;48.844;9.726;2022-08-06T03:36:51;14.70;;;2.38;;
54037;SDS011;39954;48.844;9.726;2022-08-06T03:37:57;19.40;;;2.55;;
54037;SDS011;39954;48.844;9.726;2022-08-06T03:39:04;12.77;;;2.30;;
54037;SDS011;39954;48.844;9.726;2022-08-06T03:40:17;35.42;;;3.55;;
54037;SDS011;39954;48.844;9.726;2022-08-06T03:41:22;18.25;;;2.42;;
54037;SDS011;39954;48.844;9.726;2022-08-06T03:42:34;6.43;;;1.75;;
54037;SDS011;39954;48.844;9.726;2022-08-06T03:43:37;18.90;;;2.72;;
54037;SDS011;39954;48.844;9.726;2022-08-06T03:45:03;15.77;;;2.58;;
54037;SDS011;39954;48.844;9.726;2022-08-06T03:46:06;4.88;;;2.00;;
54037;SDS011;39954;48.844;9.726;2022-08-06T03:47:13;12.43;;;2.40;;
54037;SDS011;39954;48.844;9.726;2022-08-06T03:48:32;11.73;;;2.45;;
54037;SDS011;39954;48.844;9.726;2022-08-06T03:49:45;27.38;;;3.45;;
54037;SDS011;39954;48.844;9.726;2022-08-06T03:50:54;5.85;;;2.00;;
54037;SDS011;39954;48.844;9.726;2022-08-06T03:51:59;7.03;;;2.25;;
54037;SDS011;39954;48.844;9.726;2022-08-06T03:53:10;11.38;;;2.30;;
54037;SDS011;39954;48.844;9.726;2022-08-06T03:55:31;8.35;;;2.15;;
54037;SDS011;39954;48.844;9.726;2022-08-06T03:56:40;11.95;;;2.45;;
54037;SDS011;39954;48.844;9.726;2022-08-06T03:57:51;16.85;;;2.75;;
54037;SDS011;39954;48.844;9.726;2022-08-06T03:59:00;22.65;;;2.88;;
54037;SDS011;39954;48.844;9.726;2022-08-06T04:00:06;8.18;;;2.45;;
54037;SDS011;39954;48.844;9.726;2022-08-06T04:01:14;14.23;;;2.60;;
54037;SDS011;39954;48.844;9.726;2022-08-06T04:02:23;14.07;;;2.53;;
54037;SDS011;39954;48.844;9.726;2022-08-06T04:03:45;20.02;;;2.60;;
54037;SDS011;39954;48.844;9.726;2022-08-06T04:04:52;11.15;;;2.30;;
54037;SDS011;39954;48.844;9.726;2022-08-06T04:05:57;14.00;;;2.55;;
54037;SDS011;39954;48.844;9.726;2022-08-06T04:07:00;8.05;;;2.00;;
54037;SDS011;39954;48.844;9.726;2022-08-06T04:08:08;10.95;;;2.20;;
54037;SDS011;39954;48.844;9.726;2022-08-06T04:09:11;3.78;;;1.92;;
54037;SDS011;39954;48.844;9.726;2022-08-06T04:10:38;11.70;;;2.45;;
54037;SDS011;39954;48.844;9.726;2022-08-06T04:11:57;6.75;;;2.20;;
54037;SDS011;39954;48.844;9.726;2022-08-06T04:13:23;4.97;;;1.95;;
54037;SDS011;39954;48.844;9.726;2022-08-06T04:14:47;13.68;;;2.72;;
54037;SDS011;39954;48.844;9.726;2022-08-06T04:15:53;9.82;;;2.33;;
54037;SDS011;39954;48.844;9.726;2022-08-06T04:16:57;10.32;;;2.25;;
54037;SDS011;39954;48.844;9.726;2022-08-06T04:18:03;22.08;;;2.45;;
54037;SDS011;39954;48.844;9.726;2022-08-06T04:19:09;13.95;;;2.72;;
54037;SDS011;39954;48.844;9.726;2022-08-06T04:20:20;18.55;;;2.90;;
54037;SDS011;39954;48.844;9.726;2022-08-06T04:21:44;14.05;;;2.45;;
54037;SDS011;39954;48.844;9.726;2022-08-06T04:23:09;14.65;;;2.42;;
54037;SDS011;39954;48.844;9.726;2022-08-06T04:24:12;16.20;;;2.70;;
54037;SDS011;39954;48.844;9.726;2022-08-06T04:25:17;14.68;;;2.40;;
54037;SDS011;39954;48.844;9.726;2022-08-06T04:26:21;23.73;;;3.15;;
54037;SDS011;39954;48.844;9.726;2022-08-06T04:27:30;11.75;;;2.55;;
54037;SDS011;39954;48.844;9.726;2022-08-06T04:28:36;24.60;;;3.25;;
54037;SDS011;39954;48.844;9.726;2022-08-06T04:29:53;6.72;;;2.28;;
54037;SDS011;39954;48.844;9.726;2022-08-06T04:31:03;4.95;;;1.73;;
54037;SDS011;39954;48.844;9.726;2022-08-06T04:32:08;7.57;;;2.78;;
54037;SDS011;39954;48.844;9.726;2022-08-06T04:33:30;13.45;;;2.67;;
54037;SDS011;39954;48.844;9.726;2022-08-06T04:34:39;13.48;;;2.50;;
54037;SDS011;39954;48.844;9.726;2022-08-06T04:36:07;13.38;;;2.70;;
54037;SDS011;39954;48.844;9.726;2022-08-06T04:37:25;9.43;;;2.42;;
54037;SDS011;39954;48.844;9.726;2022-08-06T04:38:41;5.35;;;2.50;;
54037;SDS011;39954;48.844;9.726;2022-08-06T04:39:52;18.02;;;2.72;;
54037;SDS011;39954;48.844;9.726;2022-08-06T04:40:55;16.45;;;2.78;;
54037;SDS011;39954;48.844;9.726;2022-08-06T04:42:04;13.73;;;2.50;;
54037;SDS011;39954;48.844;9.726;2022-08-06T04:43:07;21.17;;;3.03;;
54037;SDS011;39954;48.844;9.726;2022-08-06T04:44:14;19.67;;;3.13;;
54037;SDS011;39954;48.844;9.726;2022-08-06T04:45:17;14.45;;;2.58;;
54037;SDS011;39954;48.844;9.726;2022-08-06T04:46:42;4.38;;;2.00;;
54037;SDS011;39954;48.844;9.726;2022-08-06T04:47:49;9.90;;;2.30;;
54037;SDS011;39954;48.844;9.726;2022-08-06T04:48:52;8.95;;;2.33;;
54037;SDS011;39954;48.844;9.726;2022-08-06T04:50:02;10.30;;;2.35;;
54037;SDS011;39954;48.844;9.726;2022-08-06T04:51:12;11.00;;;2.53;;
54037;SDS011;39954;48.844;9.726;2022-08-06T04:52:37;13.45;;;2.47;;
54037;SDS011;39954;48.844;9.726;2022-08-06T04:53:49;6.53;;;2.15;;
54037;SDS011;39954;48.844;9.726;2022-08-06T04:54:58;18.52;;;3.00;;
54037;SDS011;39954;48.844;9.726;2022-08-06T04:56:00;14.73;;;3.17;;
54037;SDS011;39954;48.844;9.726;2022-08-06T04:57:04;13.18;;;2.33;;
54037;SDS011;39954;48.844;9.726;2022-08-06T04:58:27;20.10;;;2.97;;
54037;SDS011;39954;48.844;9.726;2022-08-06T04:59:33;9.35;;;2.65;;
54037;SDS011;39954;48.844;9.726;2022-08-06T05:00:51;17.25;;;2.75;;
54037;SDS011;39954;48.844;9.726;2022-08-06T05:02:07;10.32;;;2.58;;
54037;SDS011;39954;48.844;9.726;2022-08-06T05:03:09;21.58;;;3.08;;
54037;SDS011;39954;48.844;9.726;2022-08-06T05:04:16;21.23;;;2.92;;
54037;SDS011;39954;48.844;9.726;2022-08-06T05:05:23;10.70;;;2.63;;
54037;SDS011;39954;48.844;9.726;2022-08-06T05:06:33;14.13;;;2.47;;
54037;SDS011;39954;48.844;9.726;2022-08-06T05:07:47;3.95;;;2.10;;
54037;SDS011;39954;48.844;9.726;2022-08-06T05:09:02;12.40;;;2.28;;
54037;SDS011;39954;48.844;9.726;2022-08-06T05:10:24;12.15;;;2.55;;
54037;SDS011;39954;48.844;9.726;2022-08-06T05:11:35;11.90;;;2.30;;
54037;SDS011;39954;48.844;9.726;2022-08-06T05:12:59;7.80;;;2.25;;
54037;SDS011;39954;48.844;9.726;2022-08-06T05:14:08;23.70;;;3.42;;
54037;SDS011;39954;48.844;9.726;2022-08-06T05:15:23;5.50;;;2.00;;
54037;SDS011;39954;48.844;9.726;2022-08-06T05:16:44;21.80;;;3.15;;
54037;SDS011;39954;48.844;9.726;2022-08-06T05:17:55;18.15;;;2.88;;
54037;SDS011;39954;48.844;9.726;2022-08-06T05:19:02;17.75;;;3.35;;
54037;SDS011;39954;48.844;9.726;2022-08-06T05:20:23;11.40;;;2.28;;
54037;SDS011;39954;48.844;9.726;2022-08-06T05:21:33;13.73;;;2.67;;
54037;SDS011;39954;48.844;9.726;2022-08-06T05:22:59;15.00;;;2.70;;
54037;SDS011;39954;48.844;9.726;2022-08-06T05:24:19;16.90;;;3.33;;
54037;SDS011;39954;48.844;9.726;2022-08-06T05:25:40;16.48;;;3.00;;
54037;SDS011;39954;48.844;9.726;2022-08-06T05:26:54;14.63;;;2.60;;
54037;SDS011;39954;48.844;9.726;2022-08-06T05:27:56;22.40;;;2.90;;
54037;SDS011;39954;48.844;9.726;2022-08-06T05:29:12;10.80;;;1.90;;
54037;SDS011;39954;48.844;9.726;2022-08-06T05:30:23;20.50;;;3.22;;
54037;SDS011;39954;48.844;9.726;2022-08-06T05:31:29;21.48;;;3.08;;
54037;SDS011;39954;48.844;9.726;2022-08-06T05:32:40;18.05;;;3.17;;
54037;SDS011;39954;48.844;9.726;2022-08-06T05:33:45;20.48;;;3.15;;
54037;SDS011;39954;48.844;9.726;2022-08-06T05:34:50;13.30;;;2.83;;
54037;SDS011;39954;48.844;9.726;2022-08-06T05:35:54;9.15;;;2.28;;
54037;SDS011;39954;48.844;9.726;2022-08-06T05:37:07;10.00;;;2.72;;
54037;SDS011;39954;48.844;9.726;2022-08-06T05:38:10;19.13;;;3.45;;
54037;SDS011;39954;48.844;9.726;2022-08-06T05:39:32;24.00;;;3.78;;
54037;SDS011;39954;48.844;9.726;2022-08-06T05:42:02;17.00;;;3.22;;
54037;SDS011;39954;48.844;9.726;2022-08-06T05:43:07;10.90;;;2.92;;
54037;SDS011;39954;48.844;9.726;2022-08-06T05:44:09;12.93;;;2.85;;
54037;SDS011;39954;48.844;9.726;2022-08-06T05:45:15;11.63;;;2.65;;
54037;SDS011;39954;48.844;9.726;2022-08-06T05:46:27;12.27;;;2.67;;
54037;SDS011;39954;48.844;9.726;2022-08-06T05:47:35;18.13;;;3.08;;
54037;SDS011;39954;48.844;9.726;2022-08-06T05:48:58;9.52;;;2.70;;
54037;SDS011;39954;48.844;9.726;2022-08-06T05:50:28;14.77;;;2.80;;
54037;SDS011;39954;48.844;9.726;2022-08-06T05:51:38;11.88;;;2.40;;
54037;SDS011;39954;48.844;9.726;2022-08-06T05:52:50;11.40;;;2.50;;
54037;SDS011;39954;48.844;9.726;2022-08-06T05:54:01;9.55;;;2.47;;
54037;SDS011;39954;48.844;9.726;2022-08-06T05:55:11;5.47;;;2.20;;
54037;SDS011;39954;48.844;9.726;2022-08-06T05:56:27;7.45;;;2.63;;
54037;SDS011;39954;48.844;9.726;2022-08-06T05:57:41;7.40;;;2.53;;
54037;SDS011;39954;48.844;9.726;2022-08-06T05:58:56;8.32;;;2.20;;
54037;SDS011;39954;48.844;9.726;2022-08-06T06:00:06;17.88;;;2.97;;
54037;SDS011;39954;48.844;9.726;2022-08-06T06:01:30;6.63;;;2.40;;
54037;SDS011;39954;48.844;9.726;2022-08-06T06:02:44;11.70;;;2.63;;
54037;SDS011;39954;48.844;9.726;2022-08-06T06:03:51;6.60;;;2.20;;
54037;SDS011;39954;48.844;9.726;2022-08-06T06:04:55;7.82;;;2.45;;
54037;SDS011;39954;48.844;9.726;2022-08-06T06:06:22;12.32;;;2.40;;
54037;SDS011;39954;48.844;9.726;2022-08-06T06:07:28;14.65;;;2.50;;
54037;SDS011;39954;48.844;9.726;2022-08-06T06:08:54;12.18;;;2.42;;
54037;SDS011;39954;48.844;9.726;2022-08-06T06:10:03;12.63;;;2.22;;
54037;SDS011;39954;48.844;9.726;2022-08-06T06:11:17;16.77;;;3.25;;
54037;SDS011;39954;48.844;9.726;2022-08-06T06:12:42;14.13;;;2.28;;
54037;SDS011;39954;48.844;9.726;2022-08-06T06:13:52;17.83;;;3.15;;
54037;SDS011;39954;48.844;9.726;2022-08-06T06:15:00;23.08;;;3.25;;
54037;SDS011;39954;48.844;9.726;2022-08-06T06:16:27;21.88;;;3.13;;
54037;SDS011;39954;48.844;9.726;2022-08-06T06:17:51;17.42;;;3.30;;
54037;SDS011;39954;48.844;9.726;2022-08-06T06:19:05;24.42;;;3.45;;
54037;SDS011;39954;48.844;9.726;2022-08-06T06:20:20;12.80;;;2.92;;
54037;SDS011;39954;48.844;9.726;2022-08-06T06:21:51;17.90;;;3.13;;
54037;SDS011;39954;48.844;9.726;2022-08-06T06:23:05;12.40;;;2.33;;
54037;SDS011;39954;48.844;9.726;2022-08-06T06:24:16;11.00;;;2.40;;
54037;SDS011;39954;48.844;9.726;2022-08-06T06:25:29;14.88;;;3.08;;
54037;SDS011;39954;48.844;9.726;2022-08-06T06:26:39;14.30;;;3.05;;
54037;SDS011;39954;48.844;9.726;2022-08-06T06:27:52;15.27;;;2.95;;
54037;SDS011;39954;48.844;9.726;2022-08-06T06:29:02;22.65;;;3.58;;
54037;SDS011;39954;48.844;9.726;2022-08-06T06:30:16;10.95;;;2.33;;
54037;SDS011;39954;48.844;9.726;2022-08-06T06:31:49;14.00;;;2.88;;
54037;SDS011;39954;48.844;9.726;2022-08-06T06:33:24;9.85;;;2.72;;
54037;SDS011;39954;48.844;9.726;2022-08-06T06:34:50;18.05;;;3.47;;
54037;SDS011;39954;48.844;9.726;2022-08-06T06:36:07;14.90;;;2.92;;
54037;SDS011;39954;48.844;9.726;2022-08-06T06:37:23;7.07;;;2.42;;
54037;SDS011;39954;48.844;9.726;2022-08-06T06:38:43;11.82;;;2.85;;
54037;SDS011;39954;48.844;9.726;2022-08-06T06:40:10;21.20;;;3.17;;
54037;SDS011;39954;48.844;9.726;2022-08-06T06:41:21;16.05;;;3.13;;
54037;SDS011;39954;48.844;9.726;2022-08-06T06:42:34;20.42;;;3.05;;
54037;SDS011;39954;48.844;9.726;2022-08-06T06:43:40;5.32;;;2.40;;
54037;SDS011;39954;48.844;9.726;2022-08-06T06:44:57;10.15;;;2.53;;
54037;SDS011;39954;48.844;9.726;2022-08-06T06:46:27;12.63;;;2.95;;
54037;SDS011;39954;48.844;9.726;2022-08-06T06:49:03;10.10;;;2.55;;
54037;SDS011;39954;48.844;9.726;2022-08-06T06:50:33;18.70;;;3.47;;
54037;SDS011;39954;48.844;9.726;2022-08-06T06:51:50;18.88;;;3.60;;
54037;SDS011;39954;48.844;9.726;2022-08-06T06:53:09;29.30;;;3.83;;
54037;SDS011;39954;48.844;9.726;2022-08-06T06:54:16;18.92;;;3.63;;
54037;SDS011;39954;48.844;9.726;2022-08-06T06:55:42;12.93;;;3.72;;
54037;SDS011;39954;48.844;9.726;2022-08-06T06:56:59;15.27;;;3.53;;
54037;SDS011;39954;48.844;9.726;2022-08-06T06:58:10;13.55;;;3.33;;
54037;SDS011;39954;48.844;9.726;2022-08-06T06:59:37;13.38;;;3.30;;
54037;SDS011;39954;48.844;9.726;2022-08-06T07:01:06;20.98;;;4.20;;
54037;SDS011;39954;48.844;9.726;2022-08-06T07:02:30;6.28;;;2.88;;
54037;SDS011;39954;48.844;9.726;2022-08-06T07:03:38;11.80;;;3.08;;
54037;SDS011;39954;48.844;9.726;2022-08-06T07:04:43;16.63;;;3.40;;
54037;SDS011;39954;48.844;9.726;2022-08-06T07:05:51;8.27;;;3.03;;
54037;SDS011;39954;48.844;9.726;2022-08-06T07:07:06;9.13;;;3.00;;
54037;SDS011;39954;48.844;9.726;2022-08-06T07:08:23;14.07;;;3.42;;
54037;SDS011;39954;48.844;9.726;2022-08-06T07:09:38;12.52;;;3.00;;
54037;SDS011;39954;48.844;9.726;2022-08-06T07:11:03;11.88;;;3.30;;
54037;SDS011;39954;48.844;9.726;2022-08-06T07:12:06;12.73;;;3.35;;
54037;SDS011;39954;48.844;9.726;2022-08-06T07:13:20;8.25;;;3.22;;
54037;SDS011;39954;48.844;9.726;2022-08-06T07:14:44;19.73;;;3.45;;
54037;SDS011;39954;48.844;9.726;2022-08-06T07:16:01;10.05;;;2.63;;
54037;SDS011;39954;48.844;9.726;2022-08-06T07:17:06;14.85;;;3.33;;
54037;SDS011;39954;48.844;9.726;2022-08-06T07:18:32;8.60;;;2.53;;
54037;SDS011;39954;48.844;9.726;2022-08-06T07:19:36;12.38;;;3.33;;
54037;SDS011;39954;48.844;9.726;2022-08-06T07:20:46;15.35;;;3.42;;
54037;SDS011;39954;48.844;9.726;2022-08-06T07:21:49;11.77;;;2.80;;
54037;SDS011;39954;48.844;9.726;2022-08-06T07:22:57;12.20;;;2.83;;
54037;SDS011;39954;48.844;9.726;2022-08-06T07:24:22;13.82;;;3.15;;
54037;SDS011;39954;48.844;9.726;2022-08-06T07:25:40;17.70;;;3.72;;
54037;SDS011;39954;48.844;9.726;2022-08-06T07:26:58;20.70;;;3.75;;
54037;SDS011;39954;48.844;9.726;2022-08-06T07:28:04;13.02;;;3.10;;
54037;SDS011;39954;48.844;9.726;2022-08-06T07:29:12;5.88;;;2.80;;
54037;SDS011;39954;48.844;9.726;2022-08-06T07:30:40;11.27;;;2.83;;
54037;SDS011;39954;48.844;9.726;2022-08-06T07:31:47;9.10;;;3.03;;
54037;SDS011;39954;48.844;9.726;2022-08-06T07:32:53;11.50;;;2.72;;
54037;SDS011;39954;48.844;9.726;2022-08-06T07:33:59;15.68;;;2.90;;
54037;SDS011;39954;48.844;9.726;2022-08-06T07:35:03;12.20;;;2.92;;
54037;SDS011;39954;48.844;9.726;2022-08-06T07:36:14;10.15;;;2.45;;
54037;SDS011;39954;48.844;9.726;2022-08-06T07:37:18;11.27;;;2.78;;
54037;SDS011;39954;48.844;9.726;2022-08-06T07:38:26;5.68;;;2.70;;
54037;SDS011;39954;48.844;9.726;2022-08-06T07:39:29;7.72;;;2.70;;
54037;SDS011;39954;48.844;9.726;2022-08-06T07:40:39;14.05;;;2.88;;
54037;SDS011;39954;48.844;9.726;2022-08-06T07:41:53;16.08;;;3.30;;
54037;SDS011;39954;48.844;9.726;2022-08-06T07:43:27;21.02;;;3.45;;
54037;SDS011;39954;48.844;9.726;2022-08-06T07:44:35;17.65;;;2.97;;
54037;SDS011;39954;48.844;9.726;2022-08-06T07:45:58;6.57;;;2.75;;
54037;SDS011;39954;48.844;9.726;2022-08-06T07:47:07;6.30;;;2.20;;
54037;SDS011;39954;48.844;9.726;2022-08-06T07:48:26;23.27;;;3.25;;
54037;SDS011;39954;48.844;9.726;2022-08-06T07:49:39;8.63;;;2.47;;
54037;SDS011;39954;48.844;9.726;2022-08-06T07:51:02;6.38;;;2.33;;
54037;SDS011;39954;48.844;9.726;2022-08-06T07:52:08;5.80;;;2.28;;
54037;SDS011;39954;48.844;9.726;2022-08-06T07:53:18;5.22;;;2.40;;
54037;SDS011;39954;48.844;9.726;2022-08-06T07:54:44;20.70;;;2.83;;
54037;SDS011;39954;48.844;9.726;2022-08-06T07:55:50;18.10;;;2.90;;
54037;SDS011;39954;48.844;9.726;2022-08-06T07:56:55;25.90;;;3.38;;
54037;SDS011;39954;48.844;9.726;2022-08-06T07:58:03;18.67;;;2.95;;
54037;SDS011;39954;48.844;9.726;2022-08-06T07:59:12;11.85;;;2.58;;
54037;SDS011;39954;48.844;9.726;2022-08-06T08:00:15;14.77;;;2.47;;
54037;SDS011;39954;48.844;9.726;2022-08-06T08:01:21;14.55;;;2.53;;
54037;SDS011;39954;48.844;9.726;2022-08-06T08:02:28;19.58;;;2.75;;
54037;SDS011;39954;48.844;9.726;2022-08-06T08:03:34;9.75;;;2.33;;
54037;SDS011;39954;48.844;9.726;2022-08-06T08:04:58;5.90;;;2.20;;
54037;SDS011;39954;48.844;9.726;2022-08-06T08:06:17;14.35;;;2.42;;
54037;SDS011;39954;48.844;9.726;2022-08-06T08:07:22;22.92;;;2.90;;
54037;SDS011;39954;48.844;9.726;2022-08-06T08:08:48;11.23;;;2.08;;
54037;SDS011;39954;48.844;9.726;2022-08-06T08:09:53;5.20;;;1.63;;
54037;SDS011;39954;48.844;9.726;2022-08-06T08:11:04;10.10;;;1.88;;
54037;SDS011;39954;48.844;9.726;2022-08-06T08:12:11;10.68;;;2.15;;
54037;SDS011;39954;48.844;9.726;2022-08-06T08:13:36;20.38;;;2.55;;
54037;SDS011;39954;48.844;9.726;2022-08-06T08:14:47;11.55;;;2.25;;
54037;SDS011;39954;48.844;9.726;2022-08-06T08:15:54;16.95;;;2.67;;
54037;SDS011;39954;48.844;9.726;2022-08-06T08:16:57;9.55;;;2.13;;
54037;SDS011;39954;48.844;9.726;2022-08-06T08:18:04;23.85;;;2.75;;
54037;SDS011;39954;48.844;9.726;2022-08-06T08:20:36;9.63;;;1.58;;
54037;SDS011;39954;48.844;9.726;2022-08-06T08:21:41;18.70;;;2.15;;
54037;SDS011;39954;48.844;9.726;2022-08-06T08:22:46;22.90;;;2.53;;
54037;SDS011;39954;48.844;9.726;2022-08-06T08:23:52;18.52;;;1.83;;
54037;SDS011;39954;48.844;9.726;2022-08-06T08:24:58;5.78;;;1.98;;
54037;SDS011;39954;48.844;9.726;2022-08-06T08:26:00;19.35;;;2.08;;
54037;SDS011;39954;48.844;9.726;2022-08-06T08:27:06;31.00;;;3.20;;
54037;SDS011;39954;48.844;9.726;2022-08-06T08:28:24;18.42;;;2.13;;
54037;SDS011;39954;48.844;9.726;2022-08-06T08:29:29;10.23;;;1.65;;
54037;SDS011;39954;48.844;9.726;2022-08-06T08:30:39;4.18;;;1.67;;
54037;SDS011;39954;48.844;9.726;2022-08-06T08:31:49;9.55;;;1.80;;
54037;SDS011;39954;48.844;9.726;2022-08-06T08:33:00;14.68;;;1.88;;
54037;SDS011;39954;48.844;9.726;2022-08-06T08:34:11;5.25;;;1.15;;
54037;SDS011;39954;48.844;9.726;2022-08-06T08:35:18;5.93;;;1.35;;
54037;SDS011;39954;48.844;9.726;2022-08-06T08:36:20;5.45;;;1.50;;
54037;SDS011;39954;48.844;9.726;2022-08-06T08:37:31;6.10;;;1.23;;
54037;SDS011;39954;48.844;9.726;2022-08-06T08:38:33;6.22;;;1.23;;
54037;SDS011;39954;48.844;9.726;2022-08-06T08:39:42;14.05;;;1.67;;
54037;SDS011;39954;48.844;9.726;2022-08-06T08:40:46;4.57;;;1.30;;
54037;SDS011;39954;48.844;9.726;2022-08-06T08:41:55;11.85;;;1.80;;
54037;SDS011;39954;48.844;9.726;2022-08-06T08:43:08;9.57;;;1.67;;
54037;SDS011;39954;48.844;9.726;2022-08-06T08:44:21;19.08;;;2.13;;
54037;SDS011;39954;48.844;9.726;2022-08-06T08:45:31;14.18;;;1.80;;
54037;SDS011;39954;48.844;9.726;2022-08-06T08:46:40;15.73;;;2.30;;
54037;SDS011;39954;48.844;9.726;2022-08-06T08:47:58;5.82;;;1.60;;
54037;SDS011;39954;48.844;9.726;2022-08-06T08:49:04;6.18;;;1.88;;
54037;SDS011;39954;48.844;9.726;2022-08-06T08:50:16;18.00;;;1.80;;
54037;SDS011;39954;48.844;9.726;2022-08-06T08:51:21;14.77;;;1.90;;
54037;SDS011;39954;48.844;9.726;2022-08-06T08:52:31;12.68;;;1.63;;
54037;SDS011;39954;48.844;9.726;2022-08-06T08:53:39;17.20;;;2.03;;
54037;SDS011;39954;48.844;9.726;2022-08-06T08:54:50;12.65;;;1.73;;
54037;SDS011;39954;48.844;9.726;2022-08-06T08:55:56;17.48;;;2.03;;
54037;SDS011;39954;48.844;9.726;2022-08-06T08:57:18;6.50;;;1.63;;
54037;SDS011;39954;48.844;9.726;2022-08-06T08:58:44;5.43;;;1.30;;
54037;SDS011;39954;48.844;9.726;2022-08-06T09:00:10;12.05;;;1.83;;
54037;SDS011;39954;48.844;9.726;2022-08-06T09:01:27;20.02;;;2.50;;
54037;SDS011;39954;48.844;9.726;2022-08-06T09:02:54;4.10;;;1.20;;
54037;SDS011;39954;48.844;9.726;2022-08-06T09:04:01;8.77;;;1.40;;
54037;SDS011;39954;48.844;9.726;2022-08-06T09:05:05;13.15;;;1.65;;
54037;SDS011;39954;48.844;9.726;2022-08-06T09:06:11;7.93;;;1.38;;
54037;SDS011;39954;48.844;9.726;2022-08-06T09:07:29;12.77;;;1.77;;
54037;SDS011;39954;48.844;9.726;2022-08-06T09:08:37;20.67;;;1.95;;
54037;SDS011;39954;48.844;9.726;2022-08-06T09:10:00;4.97;;;1.20;;
54037;SDS011;39954;48.844;9.726;2022-08-06T09:11:06;17.20;;;2.03;;
54037;SDS011;39954;48.844;9.726;2022-08-06T09:13:46;8.15;;;1.95;;
54037;SDS011;39954;48.844;9.726;2022-08-06T09:14:52;15.00;;;1.95;;
54037;SDS011;39954;48.844;9.726;2022-08-06T09:15:57;29.52;;;2.45;;
54037;SDS011;39954;48.844;9.726;2022-08-06T09:17:01;27.70;;;2.45;;
54037;SDS011;39954;48.844;9.726;2022-08-06T09:18:15;14.05;;;1.73;;
54037;SDS011;39954;48.844;9.726;2022-08-06T09:19:28;14.15;;;1.58;;
54037;SDS011;39954;48.844;9.726;2022-08-06T09:20:41;22.13;;;2.47;;
54037;SDS011;39954;48.844;9.726;2022-08-06T09:21:47;6.13;;;1.52;;
54037;SDS011;39954;48.844;9.726;2022-08-06T09:22:54;9.45;;;1.70;;
54037;SDS011;39954;48.844;9.726;2022-08-06T09:23:56;7.20;;;1.40;;
54037;SDS011;39954;48.844;9.726;2022-08-06T09:25:05;14.15;;;1.60;;
54037;SDS011;39954;48.844;9.726;2022-08-06T09:26:19;33.17;;;2.63;;
54037;SDS011;39954;48.844;9.726;2022-08-06T09:27:44;6.25;;;1.20;;
54037;SDS011;39954;48.844;9.726;2022-08-06T09:28:49;16.50;;;1.80;;
54037;SDS011;39954;48.844;9.726;2022-08-06T09:29:53;5.07;;;1.20;;
54037;SDS011;39954;48.844;9.726;2022-08-06T09:31:05;7.45;;;1.50;;
54037;SDS011;39954;48.844;9.726;2022-08-06T09:32:37;8.80;;;1.35;;
54037;SDS011;39954;48.844;9.726;2022-08-06T09:34:02;12.15;;;1.50;;
54037;SDS011;39954;48.844;9.726;2022-08-06T09:35:28;6.15;;;1.00;;
54037;SDS011;39954;48.844;9.726;2022-08-06T09:36:46;8.32;;;1.20;;
54037;SDS011;39954;48.844;9.726;2022-08-06T09:38:00;14.45;;;1.92;;
54037;SDS011;39954;48.844;9.726;2022-08-06T09:39:02;10.95;;;2.00;;
54037;SDS011;39954;48.844;9.726;2022-08-06T09:40:12;9.15;;;1.48;;
54037;SDS011;39954;48.844;9.726;2022-08-06T09:41:16;17.17;;;2.22;;
54037;SDS011;39954;48.844;9.726;2022-08-06T09:42:36;11.60;;;1.60;;
54037;SDS011;39954;48.844;9.726;2022-08-06T09:43:39;2.40;;;1.00;;
54037;SDS011;39954;48.844;9.726;2022-08-06T09:45:05;3.83;;;0.98;;
54037;SDS011;39954;48.844;9.726;2022-08-06T09:46:17;12.40;;;1.70;;
54037;SDS011;39954;48.844;9.726;2022-08-06T09:47:38;14.18;;;1.60;;
54037;SDS011;39954;48.844;9.726;2022-08-06T09:48:57;14.07;;;1.58;;
54037;SDS011;39954;48.844;9.726;2022-08-06T09:50:34;18.77;;;1.88;;
54037;SDS011;39954;48.844;9.726;2022-08-06T09:51:43;19.02;;;1.98;;
54037;SDS011;39954;48.844;9.726;2022-08-06T09:52:59;13.13;;;1.75;;
54037;SDS011;39954;48.844;9.726;2022-08-06T09:54:15;3.95;;;1.33;;
54037;SDS011;39954;48.844;9.726;2022-08-06T09:55:28;14.38;;;3.30;;
54037;SDS011;39954;48.844;9.726;2022-08-06T09:56:41;6.32;;;1.52;;
54037;SDS011;39954;48.844;9.726;2022-08-06T09:57:47;9.55;;;2.10;;
54037;SDS011;39954;48.844;9.726;2022-08-06T09:58:49;13.73;;;1.88;;
54037;SDS011;39954;48.844;9.726;2022-08-06T09:59:54;8.75;;;1.52;;
54037;SDS011;39954;48.844;9.726;2022-08-06T10:00:57;13.75;;;2.05;;
54037;SDS011;39954;48.844;9.726;2022-08-06T10:02:23;8.73;;;1.75;;
54037;SDS011;39954;48.844;9.726;2022-08-06T10:03:37;9.60;;;1.60;;
54037;SDS011;39954;48.844;9.726;2022-08-06T10:05:09;14.95;;;2.00;;
54037;SDS011;39954;48.844;9.726;2022-08-06T10:06:20;34.00;;;2.45;;